createdAt,value
2023-03-10T00:00:23.763Z,98071.34
2023-03-10T00:02:50.829Z,98070.63
2023-03-10T00:05:19.139Z,98080.03
2023-03-10T00:07:46.766Z,98079.94
2023-03-10T00:10:14.558Z,98084.19
2023-03-10T00:12:41.616Z,98100.88
2023-03-10T00:15:09.067Z,98101.47
2023-03-10T00:17:36.438Z,98107.25
2023-03-10T00:20:08.237Z,98100.50
2023-03-10T00:22:35.612Z,98104.00
2023-03-10T00:25:02.549Z,98112.56
2023-03-10T00:27:29.996Z,98110.78
2023-03-10T00:29:56.981Z,98110.88
2023-03-10T00:32:23.948Z,98101.84
2023-03-10T00:34:50.857Z,98103.50
2023-03-10T00:37:19.574Z,98104.34
2023-03-10T00:39:50.827Z,98104.50
2023-03-10T00:42:18.012Z,98112.09
2023-03-10T00:44:46.257Z,98110.53
2023-03-10T00:47:13.361Z,98103.84
2023-03-10T00:49:40.358Z,98108.16
2023-03-10T00:52:07.273Z,98109.97
2023-03-10T00:54:34.223Z,98104.81
2023-03-10T00:57:01.838Z,98112.31
2023-03-10T00:59:32.881Z,98109.72
2023-03-10T01:02:07.616Z,98113.13
2023-03-10T01:04:34.712Z,98108.97
2023-03-10T01:07:02.573Z,98113.97
2023-03-10T01:09:29.610Z,98115.69
2023-03-10T01:11:56.623Z,98120.69
2023-03-10T01:14:23.609Z,98116.44
2023-03-10T01:16:50.745Z,98120.66
2023-03-10T01:19:18.572Z,98121.41
2023-03-10T01:21:45.780Z,98122.22
2023-03-10T01:24:16.066Z,98117.16
2023-03-10T01:26:43.326Z,98118.88
2023-03-10T01:29:10.323Z,98124.78
2023-03-10T01:31:37.388Z,98124.03
2023-03-10T01:34:04.453Z,98121.47
2023-03-10T01:36:31.443Z,98128.31
2023-03-10T01:38:58.567Z,98124.09
2023-03-10T01:41:25.731Z,98126.56
2023-03-10T01:43:54.233Z,98133.38
2023-03-10T01:46:36.408Z,98135.97
2023-03-10T01:49:13.319Z,98141.78
2023-03-10T01:51:41.403Z,98135.81
2023-03-10T01:54:11.212Z,98138.25
2023-03-10T01:56:38.161Z,98131.31
2023-03-10T01:59:05.183Z,98124.53
2023-03-10T02:01:32.194Z,98128.69
2023-03-10T02:04:14.710Z,98132.78
2023-03-10T02:06:42.483Z,98134.47
2023-03-10T02:09:09.494Z,98131.94
2023-03-10T02:11:36.809Z,98126.16
2023-03-10T02:14:04.787Z,98121.81
2023-03-10T02:16:32.036Z,98130.88
2023-03-10T02:18:59.105Z,98122.28
2023-03-10T02:21:33.426Z,98124.75
2023-03-10T02:24:15.259Z,98126.66
2023-03-10T02:27:09.249Z,98133.59
2023-03-10T02:29:59.221Z,98131.00
2023-03-10T02:32:33.378Z,98125.16
2023-03-10T02:35:01.192Z,98123.38
2023-03-10T02:37:30.659Z,98128.44
2023-03-10T02:39:58.225Z,98131.06
2023-03-10T02:42:29.470Z,98121.66
2023-03-10T02:44:56.557Z,98124.28
2023-03-10T02:47:23.646Z,98128.50
2023-03-10T02:49:51.112Z,98131.94
2023-03-10T02:52:44.558Z,98130.25
2023-03-10T02:55:16.072Z,98132.78
2023-03-10T02:57:43.809Z,98132.75
2023-03-10T03:00:12.378Z,98132.63
2023-03-10T03:02:39.977Z,98128.19
2023-03-10T03:05:07.516Z,98130.38
2023-03-10T03:07:34.755Z,98126.16
2023-03-10T03:10:03.070Z,98131.19
2023-03-10T03:12:30.443Z,98136.34
2023-03-10T03:14:57.557Z,98144.84
2023-03-10T03:17:24.608Z,98140.47
2023-03-10T03:19:51.903Z,98137.94
2023-03-10T03:22:21.906Z,98140.53
2023-03-10T03:24:49.249Z,98142.34
2023-03-10T03:27:16.326Z,98142.41
2023-03-10T03:29:44.711Z,98141.66
2023-03-10T03:32:12.017Z,98141.31
2023-03-10T03:34:39.116Z,98140.47
2023-03-10T03:37:07.339Z,98147.91
2023-03-10T03:39:37.981Z,98156.22
2023-03-10T03:42:07.815Z,98162.84
2023-03-10T03:44:43.562Z,98166.19
2023-03-10T03:47:11.320Z,98155.88
2023-03-10T03:49:39.086Z,98154.88
2023-03-10T03:52:06.994Z,98152.31
2023-03-10T03:54:34.051Z,98167.66
2023-03-10T03:57:01.112Z,98164.31
2023-03-10T03:59:28.148Z,98167.56
2023-03-10T04:01:55.822Z,98168.44
2023-03-10T04:04:23.702Z,98165.03
2023-03-10T04:06:50.924Z,98174.84
2023-03-10T04:09:18.319Z,98170.53
2023-03-10T04:11:45.453Z,98174.88
2023-03-10T04:14:12.426Z,98178.31
2023-03-10T04:16:39.666Z,98183.81
2023-03-10T04:19:07.816Z,98189.59
2023-03-10T04:21:38.334Z,98181.72
2023-03-10T04:24:06.304Z,98189.25
2023-03-10T04:26:33.393Z,98186.50
2023-03-10T04:29:00.584Z,98188.31
2023-03-10T04:31:30.485Z,98200.72
2023-03-10T04:33:59.421Z,98204.63
2023-03-10T04:36:26.362Z,98207.88
2023-03-10T04:38:56.412Z,98222.28
2023-03-10T04:41:28.588Z,98223.69
2023-03-10T04:43:55.625Z,98218.84
2023-03-10T04:46:23.004Z,98224.72
2023-03-10T04:48:50.527Z,98229.84
2023-03-10T04:51:17.559Z,98236.66
2023-03-10T04:53:50.799Z,98242.72
2023-03-10T04:56:18.266Z,98241.81
2023-03-10T04:58:45.498Z,98247.78
2023-03-10T05:01:13.618Z,98247.56
2023-03-10T05:03:45.757Z,98255.34
2023-03-10T05:06:20.962Z,98264.47
2023-03-10T05:09:01.089Z,98269.41
2023-03-10T05:11:29.273Z,98271.97
2023-03-10T05:13:56.466Z,98274.28
2023-03-10T05:16:23.965Z,98287.44
2023-03-10T05:18:52.895Z,98286.59
2023-03-10T05:21:24.351Z,98286.38
2023-03-10T05:23:53.707Z,98292.28
2023-03-10T05:26:21.805Z,98297.78
2023-03-10T05:28:48.744Z,98296.34
2023-03-10T05:31:26.330Z,98311.44
2023-03-10T05:33:59.249Z,98304.06
2023-03-10T05:36:26.462Z,98307.84
2023-03-10T05:38:53.715Z,98317.22
2023-03-10T05:41:20.759Z,98325.03
2023-03-10T05:43:50.838Z,98325.97
2023-03-10T05:46:18.761Z,98330.03
2023-03-10T05:48:51.225Z,98329.91
2023-03-10T05:51:18.310Z,98334.25
2023-03-10T05:53:46.933Z,98335.19
2023-03-10T05:56:19.443Z,98322.44
2023-03-10T05:58:53.168Z,98333.56
2023-03-10T06:01:24.733Z,98335.19
2023-03-10T06:03:51.784Z,98339.22
2023-03-10T06:06:18.836Z,98345.88
2023-03-10T06:08:46.024Z,98344.41
2023-03-10T06:11:13.094Z,98352.09
2023-03-10T06:13:40.130Z,98357.16
2023-03-10T06:16:07.810Z,98368.25
2023-03-10T06:18:34.913Z,98378.47
2023-03-10T06:21:06.979Z,98379.28
2023-03-10T06:23:34.115Z,98376.97
2023-03-10T06:26:06.956Z,98380.53
2023-03-10T06:28:36.809Z,98384.88
2023-03-10T06:31:17.859Z,98386.06
2023-03-10T06:33:45.054Z,98384.44
2023-03-10T06:36:12.548Z,98387.91
2023-03-10T06:38:39.674Z,98395.72
2023-03-10T06:41:06.797Z,98403.63
2023-03-10T06:43:34.000Z,98407.31
2023-03-10T06:46:03.261Z,98407.19
2023-03-10T06:48:30.365Z,98416.50
2023-03-10T06:50:57.423Z,98416.88
2023-03-10T06:53:24.599Z,98419.75
2023-03-10T06:56:01.913Z,98427.91
2023-03-10T06:58:29.208Z,98426.56
2023-03-10T07:00:56.571Z,98431.81
2023-03-10T07:03:26.419Z,98438.53
2023-03-10T07:05:53.368Z,98441.94
2023-03-10T07:08:20.468Z,98446.50
2023-03-10T07:10:47.391Z,98459.59
2023-03-10T07:13:15.780Z,98460.81
2023-03-10T07:15:43.198Z,98464.53
2023-03-10T07:18:10.348Z,98459.56
2023-03-10T07:20:40.344Z,98466.16
2023-03-10T07:23:07.310Z,98464.88
2023-03-10T07:25:37.684Z,98471.47
2023-03-10T07:28:04.955Z,98472.88
2023-03-10T07:30:32.569Z,98482.25
2023-03-10T07:32:59.633Z,98492.50
2023-03-10T07:35:26.552Z,98489.84
2023-03-10T07:37:53.539Z,98493.50
2023-03-10T07:40:24.990Z,98494.59
2023-03-10T07:42:54.615Z,98490.34
2023-03-10T07:45:22.734Z,98499.56
2023-03-10T07:47:53.104Z,98501.22
2023-03-10T07:50:20.308Z,98502.31
2023-03-10T07:52:47.759Z,98509.38
2023-03-10T07:55:14.863Z,98515.31
2023-03-10T07:57:41.835Z,98516.56
2023-03-10T08:00:09.584Z,98517.75
2023-03-10T08:02:41.080Z,98515.34
2023-03-10T08:05:08.872Z,98518.88
2023-03-10T08:07:36.077Z,98525.94
2023-03-10T08:10:03.433Z,98520.72
2023-03-10T08:12:30.551Z,98526.91
2023-03-10T08:14:57.462Z,98532.31
2023-03-10T08:17:30.705Z,98535.69
2023-03-10T08:19:58.539Z,98531.97
2023-03-10T08:22:25.905Z,98538.56
2023-03-10T08:24:53.021Z,98538.69
2023-03-10T08:27:20.044Z,98545.09
2023-03-10T08:29:46.939Z,98547.53
2023-03-10T08:32:13.879Z,98552.59
2023-03-10T08:34:41.800Z,98547.78
2023-03-10T08:37:09.401Z,98548.94
2023-03-10T08:39:36.434Z,98551.94
2023-03-10T08:42:03.496Z,98558.66
2023-03-10T08:44:30.488Z,98562.06
2023-03-10T08:46:57.678Z,98563.59
2023-03-10T08:49:24.768Z,98567.16
2023-03-10T08:51:51.844Z,98566.44
2023-03-10T08:54:19.793Z,98572.41
2023-03-10T08:56:46.849Z,98579.13
2023-03-10T08:59:13.876Z,98575.16
2023-03-10T09:01:41.050Z,98577.72
2023-03-10T09:04:08.467Z,98577.59
2023-03-10T09:06:35.724Z,98572.06
2023-03-10T09:09:03.480Z,98574.47
2023-03-10T09:11:34.270Z,98576.50
2023-03-10T09:14:01.479Z,98586.84
2023-03-10T09:16:28.920Z,98585.31
2023-03-10T09:18:57.040Z,98590.28
2023-03-10T09:21:24.183Z,98583.78
2023-03-10T09:23:53.013Z,98587.56
2023-03-10T09:26:20.428Z,98599.81
2023-03-10T09:28:49.502Z,98601.88
2023-03-10T09:31:18.565Z,98597.00
2023-03-10T09:33:48.126Z,98599.94
2023-03-10T09:36:16.493Z,98611.38
2023-03-10T09:38:43.668Z,98617.22
2023-03-10T09:41:16.666Z,98622.16
2023-03-10T09:43:50.575Z,98614.16
2023-03-10T09:46:35.020Z,98629.59
2023-03-10T09:49:26.961Z,98626.84
2023-03-10T09:51:54.016Z,98628.28
2023-03-10T09:54:42.373Z,98632.53
2023-03-10T09:57:17.021Z,98630.16
2023-03-10T09:59:44.346Z,98631.25
2023-03-10T10:02:35.520Z,98633.91
2023-03-10T10:05:26.089Z,98638.09
2023-03-10T10:07:57.285Z,98635.34
2023-03-10T10:10:25.300Z,98645.59
2023-03-10T10:12:52.837Z,98647.22
2023-03-10T10:15:23.835Z,98644.69
2023-03-10T10:18:21.487Z,98642.50
2023-03-10T10:21:14.020Z,98642.34
2023-03-10T10:23:47.414Z,98648.53
2023-03-10T10:26:24.849Z,98645.72
2023-03-10T10:28:58.066Z,98654.34
2023-03-10T10:31:27.475Z,98651.88
2023-03-10T10:34:04.597Z,98657.34
2023-03-10T10:36:35.754Z,98654.84
2023-03-10T10:39:04.099Z,98653.06
2023-03-10T10:41:32.523Z,98655.00
2023-03-10T10:44:09.670Z,98668.47
2023-03-10T10:46:36.748Z,98660.81
2023-03-10T10:49:05.932Z,98673.38
2023-03-10T10:51:37.661Z,98677.47
2023-03-10T10:54:19.636Z,98693.31
2023-03-10T10:56:53.828Z,98684.44
2023-03-10T10:59:31.497Z,98690.66
2023-03-10T11:02:01.363Z,98700.19
2023-03-10T11:04:30.421Z,98697.69
2023-03-10T11:07:24.123Z,98702.53
2023-03-10T11:09:51.076Z,98705.47
2023-03-10T11:12:34.243Z,98709.38
2023-03-10T11:15:20.221Z,98709.59
2023-03-10T11:17:57.546Z,98710.91
2023-03-10T11:20:42.037Z,98719.00
2023-03-10T11:23:31.025Z,98715.66
2023-03-10T11:26:11.657Z,98718.44
2023-03-10T11:28:56.924Z,98723.50
2023-03-10T11:31:42.777Z,98724.69
2023-03-10T11:34:15.568Z,98734.38
2023-03-10T11:37:06.220Z,98737.94
2023-03-10T11:39:44.368Z,98742.97
2023-03-10T11:42:16.649Z,98749.72
2023-03-10T11:44:52.698Z,98748.84
2023-03-10T11:47:50.734Z,98758.94
2023-03-10T11:50:41.045Z,98761.59
2023-03-10T11:53:17.484Z,98772.16
2023-03-10T11:55:44.464Z,98776.88
2023-03-10T11:58:40.016Z,98771.03
2023-03-10T12:01:08.087Z,98776.78
2023-03-10T12:03:42.751Z,98781.19
2023-03-10T12:06:13.381Z,98789.19
2023-03-10T12:08:40.427Z,98800.31
2023-03-10T12:11:12.734Z,98798.47
2023-03-10T12:13:48.222Z,98804.13
2023-03-10T12:16:24.706Z,98804.22
2023-03-10T12:18:51.808Z,98810.91
2023-03-10T12:21:26.913Z,98805.13
2023-03-10T12:23:55.744Z,98814.56
2023-03-10T12:26:38.078Z,98820.75
2023-03-10T12:29:20.056Z,98822.56
2023-03-10T12:31:48.712Z,98823.69
2023-03-10T12:34:23.141Z,98828.69
2023-03-10T12:37:11.038Z,98836.28
2023-03-10T12:39:40.170Z,98834.75
2023-03-10T12:42:28.677Z,98838.13
2023-03-10T12:45:11.861Z,98841.56
2023-03-10T12:47:50.937Z,98844.94
2023-03-10T12:50:36.314Z,98853.06
2023-03-10T12:53:07.364Z,98861.16
2023-03-10T12:55:34.501Z,98862.78
2023-03-10T12:58:10.247Z,98873.00
2023-03-10T13:00:49.327Z,98885.91
2023-03-10T13:03:18.712Z,98885.16
2023-03-10T13:06:14.632Z,98892.72
2023-03-10T13:09:14.689Z,98894.00
2023-03-10T13:11:49.821Z,98901.31
2023-03-10T13:14:21.813Z,98899.22
2023-03-10T13:16:55.997Z,98907.34
2023-03-10T13:19:24.248Z,98909.28
2023-03-10T13:21:51.429Z,98912.00
2023-03-10T13:24:25.550Z,98916.31
2023-03-10T13:27:25.156Z,98923.31
2023-03-10T13:29:59.558Z,98927.38
2023-03-10T13:32:26.832Z,98934.88
2023-03-10T13:34:53.995Z,98925.19
2023-03-10T13:37:20.974Z,98938.44
2023-03-10T13:39:47.936Z,98940.38
2023-03-10T13:42:37.206Z,98943.28
2023-03-10T13:45:15.396Z,98946.25
2023-03-10T13:47:42.448Z,98948.00
2023-03-10T13:50:12.302Z,98950.31
2023-03-10T13:52:39.813Z,98950.16
2023-03-10T13:55:16.357Z,98956.03
2023-03-10T13:57:43.505Z,98953.63
2023-03-10T14:00:16.194Z,98954.81
2023-03-10T14:02:45.111Z,98959.34
2023-03-10T14:05:46.741Z,98957.66
2023-03-10T14:08:28.660Z,98964.16
2023-03-10T14:11:34.134Z,98956.66
2023-03-10T14:14:01.526Z,98969.03
2023-03-10T14:16:48.164Z,98970.16
2023-03-10T14:19:35.160Z,98969.56
2023-03-10T14:22:02.536Z,98977.38
2023-03-10T14:24:29.861Z,98973.13
2023-03-10T14:26:59.962Z,98968.75
2023-03-10T14:29:26.998Z,98972.81
2023-03-10T14:31:54.016Z,98977.81
2023-03-10T14:34:21.237Z,98976.69
2023-03-10T14:36:48.205Z,98991.81
2023-03-10T14:39:15.279Z,98987.94
2023-03-10T14:41:42.375Z,98982.28
2023-03-10T14:44:09.487Z,98981.75
2023-03-10T14:46:36.581Z,98984.31
2023-03-10T14:49:05.839Z,98986.13
2023-03-10T14:51:35.907Z,98982.34
2023-03-10T14:54:03.978Z,98992.94
2023-03-10T14:56:31.066Z,98987.88
2023-03-10T14:59:02.147Z,98987.88
2023-03-10T15:01:29.532Z,98994.56
2023-03-10T15:03:56.634Z,99002.97
2023-03-10T15:06:23.532Z,99009.63
2023-03-10T15:08:50.543Z,99013.09
2023-03-10T15:11:24.033Z,99012.56
2023-03-10T15:13:57.684Z,99018.59
2023-03-10T15:16:24.669Z,99025.63
2023-03-10T15:18:53.272Z,99031.69
2023-03-10T15:21:20.380Z,99028.44
2023-03-10T15:23:47.377Z,99044.66
2023-03-10T15:26:14.371Z,99045.81
2023-03-10T15:28:41.423Z,99051.06
2023-03-10T15:31:08.399Z,99049.16
2023-03-10T15:33:35.554Z,99051.78
2023-03-10T15:36:02.671Z,99064.69
2023-03-10T15:38:29.741Z,99073.13
2023-03-10T15:40:57.321Z,99078.38
2023-03-10T15:43:24.245Z,99081.72
2023-03-10T15:45:51.424Z,99081.41
2023-03-10T15:48:18.561Z,99086.69
2023-03-10T15:50:47.178Z,99095.88
2023-03-10T15:53:14.170Z,99099.06
2023-03-10T15:55:41.614Z,99093.44
2023-03-10T15:58:09.772Z,99096.53
2023-03-10T16:00:36.674Z,99098.47
2023-03-10T16:03:03.676Z,99096.44
2023-03-10T16:05:30.687Z,99104.44
2023-03-10T16:07:57.708Z,99111.38
2023-03-10T16:10:24.740Z,99115.69
2023-03-10T16:12:52.079Z,99113.94
2023-03-10T16:15:19.079Z,99120.41
2023-03-10T16:17:46.142Z,99127.88
2023-03-10T16:20:14.027Z,99125.03
2023-03-10T16:22:41.742Z,99127.28
2023-03-10T16:25:13.555Z,99124.75
2023-03-10T16:27:40.584Z,99128.53
2023-03-10T16:30:09.400Z,99132.00
2023-03-10T16:32:36.690Z,99131.25
2023-03-10T16:35:03.926Z,99132.28
2023-03-10T16:37:30.994Z,99130.31
2023-03-10T16:39:58.013Z,99134.00
2023-03-10T16:42:26.425Z,99135.16
2023-03-10T16:44:56.820Z,99135.16
2023-03-10T16:47:25.125Z,99143.06
2023-03-10T16:50:35.623Z,99143.91
2023-03-10T16:53:02.585Z,99136.75
2023-03-10T16:55:29.759Z,99142.09
2023-03-10T16:57:56.749Z,99144.34
2023-03-10T17:00:23.934Z,99154.63
2023-03-10T17:02:51.024Z,99147.91
2023-03-10T17:05:18.091Z,99146.81
2023-03-10T17:07:55.149Z,99146.78
2023-03-10T17:10:23.203Z,99138.28
2023-03-10T17:12:50.230Z,99140.22
2023-03-10T17:15:17.334Z,99138.66
2023-03-10T17:17:44.394Z,99141.34
2023-03-10T17:20:12.228Z,99134.94
2023-03-10T17:22:39.341Z,99133.59
2023-03-10T17:25:06.656Z,99127.13
2023-03-10T17:27:33.669Z,99132.63
2023-03-10T17:30:00.774Z,99138.59
2023-03-10T17:32:28.401Z,99143.38
2023-03-10T17:34:55.505Z,99139.25
2023-03-10T17:37:22.505Z,99141.97
2023-03-10T17:39:49.603Z,99138.38
2023-03-10T17:42:17.065Z,99142.03
2023-03-10T17:44:44.223Z,99145.16
2023-03-10T17:47:12.343Z,99148.16
2023-03-10T17:49:40.628Z,99153.13
2023-03-10T17:52:07.630Z,99152.63
2023-03-10T17:54:34.625Z,99147.66
2023-03-10T17:57:01.766Z,99148.00
2023-03-10T17:59:28.859Z,99151.19
2023-03-10T18:01:55.875Z,99154.38
2023-03-10T18:04:22.965Z,99156.69
2023-03-10T18:06:49.992Z,99151.63
2023-03-10T18:09:17.056Z,99161.53
2023-03-10T18:11:44.041Z,99162.66
2023-03-10T18:14:11.231Z,99160.00
2023-03-10T18:16:39.501Z,99156.66
2023-03-10T18:19:09.957Z,99166.13
2023-03-10T18:21:37.992Z,99167.41
2023-03-10T18:24:05.236Z,99179.41
2023-03-10T18:26:32.487Z,99186.25
2023-03-10T18:28:59.781Z,99188.84
2023-03-10T18:31:28.449Z,99182.91
2023-03-10T18:33:55.434Z,99189.28
2023-03-10T18:36:24.232Z,99186.66
2023-03-10T18:38:51.488Z,99182.38
2023-03-10T18:41:19.417Z,99192.94
2023-03-10T18:43:46.452Z,99187.31
2023-03-10T18:46:13.576Z,99195.53
2023-03-10T18:48:40.747Z,99200.75
2023-03-10T18:51:07.786Z,99198.16
2023-03-10T18:53:34.790Z,99198.84
2023-03-10T18:56:01.854Z,99198.84
2023-03-10T18:58:29.978Z,99200.44
2023-03-10T19:00:57.149Z,99204.31
2023-03-10T19:03:24.091Z,99202.25
2023-03-10T19:05:54.537Z,99204.25
2023-03-10T19:08:25.734Z,99206.50
2023-03-10T19:10:59.419Z,99209.00
2023-03-10T19:13:27.297Z,99207.06
2023-03-10T19:15:54.394Z,99209.53
2023-03-10T19:18:21.339Z,99208.94
2023-03-10T19:20:48.495Z,99209.81
2023-03-10T19:23:15.452Z,99210.28
2023-03-10T19:25:42.608Z,99212.44
2023-03-10T19:28:09.760Z,99222.47
2023-03-10T19:30:36.888Z,99221.06
2023-03-10T19:33:03.945Z,99223.28
2023-03-10T19:35:31.097Z,99221.84
2023-03-10T19:37:58.115Z,99226.59
2023-03-10T19:40:25.148Z,99229.19
2023-03-10T19:42:52.177Z,99227.06
2023-03-10T19:45:19.495Z,99237.38
2023-03-10T19:47:46.490Z,99232.56
2023-03-10T19:50:15.696Z,99234.84
2023-03-10T19:52:46.750Z,99241.31
2023-03-10T19:55:17.869Z,99240.97
2023-03-10T19:57:48.772Z,99238.94
2023-03-10T20:00:18.806Z,99241.44
2023-03-10T20:02:46.059Z,99246.66
2023-03-10T20:05:16.610Z,99251.72
2023-03-10T20:07:46.859Z,99253.34
2023-03-10T20:10:15.212Z,99250.22
2023-03-10T20:12:42.380Z,99251.66
2023-03-10T20:15:09.793Z,99253.09
2023-03-10T20:17:36.692Z,99249.38
2023-03-10T20:20:10.483Z,99247.22
2023-03-10T20:22:38.976Z,99251.41
2023-03-10T20:25:06.942Z,99245.81
2023-03-10T20:27:34.144Z,99249.47
2023-03-10T20:30:01.141Z,99250.22
2023-03-10T20:32:29.330Z,99258.44
2023-03-10T20:34:56.384Z,99262.88
2023-03-10T20:37:23.390Z,99267.47
2023-03-10T20:39:50.307Z,99263.91
2023-03-10T20:42:17.442Z,99267.88
2023-03-10T20:44:44.711Z,99273.03
2023-03-10T20:47:11.771Z,99271.00
2023-03-10T20:49:38.706Z,99267.28
2023-03-10T20:52:05.661Z,99272.72
2023-03-10T20:54:32.696Z,99266.31
2023-03-10T20:56:59.773Z,99274.72
2023-03-10T20:59:26.766Z,99276.09
2023-03-10T21:01:53.977Z,99275.66
2023-03-10T21:04:21.100Z,99281.13
2023-03-10T21:06:48.147Z,99282.63
2023-03-10T21:09:15.236Z,99288.72
2023-03-10T21:11:42.394Z,99276.03
2023-03-10T21:14:09.553Z,99281.84
2023-03-10T21:16:38.951Z,99289.50
2023-03-10T21:19:05.987Z,99283.31
2023-03-10T21:21:34.648Z,99289.72
2023-03-10T21:24:02.348Z,99294.00
2023-03-10T21:26:29.393Z,99305.13
2023-03-10T21:28:56.748Z,99299.66
2023-03-10T21:31:23.938Z,99302.53
2023-03-10T21:33:50.995Z,99304.94
2023-03-10T21:36:20.624Z,99305.16
2023-03-10T21:38:48.958Z,99310.53
2023-03-10T21:41:17.180Z,99311.78
2023-03-10T21:43:44.348Z,99317.38
2023-03-10T21:46:11.519Z,99324.88
2023-03-10T21:48:38.553Z,99331.84
2023-03-10T21:51:05.825Z,99329.84
2023-03-10T21:53:32.925Z,99329.28
2023-03-10T21:56:00.845Z,99335.78
2023-03-10T21:58:27.954Z,99343.44
2023-03-10T22:00:56.260Z,99343.97
2023-03-10T22:03:23.459Z,99340.81
2023-03-10T22:05:50.582Z,99340.34
2023-03-10T22:08:17.580Z,99349.38
2023-03-10T22:10:45.638Z,99344.16
2023-03-10T22:13:12.700Z,99343.50
2023-03-10T22:15:39.885Z,99351.66
2023-03-10T22:18:06.941Z,99355.56
2023-03-10T22:20:34.012Z,99354.09
2023-03-10T22:23:01.096Z,99353.09
2023-03-10T22:25:28.130Z,99359.50
2023-03-10T22:27:55.857Z,99357.38
2023-03-10T22:30:24.133Z,99367.97
2023-03-10T22:32:51.187Z,99360.47
2023-03-10T22:35:18.412Z,99358.94
2023-03-10T22:37:45.553Z,99364.53
2023-03-10T22:40:14.272Z,99364.34
2023-03-10T22:42:41.377Z,99369.38
2023-03-10T22:45:20.587Z,99366.28
2023-03-10T22:47:47.784Z,99373.13
2023-03-10T22:50:17.289Z,99374.28
2023-03-10T22:52:44.391Z,99379.81
2023-03-10T22:55:15.756Z,99371.91
2023-03-10T22:57:42.895Z,99366.59
2023-03-10T23:00:14.158Z,99365.44
2023-03-10T23:02:41.647Z,99364.66
2023-03-10T23:05:10.089Z,99367.66
2023-03-10T23:07:37.073Z,99361.25
2023-03-10T23:10:08.459Z,99369.13
2023-03-10T23:12:35.494Z,99365.81
2023-03-10T23:15:07.034Z,99360.09
2023-03-10T23:17:36.373Z,99359.03
2023-03-10T23:20:03.386Z,99357.00
2023-03-10T23:22:30.460Z,99364.25
2023-03-10T23:24:57.449Z,99355.16
2023-03-10T23:27:24.461Z,99363.31
2023-03-10T23:29:51.504Z,99354.78
2023-03-10T23:32:18.509Z,99348.19
2023-03-10T23:34:45.496Z,99351.09
2023-03-10T23:37:12.465Z,99350.03
2023-03-10T23:39:39.467Z,99344.88
2023-03-10T23:42:07.840Z,99351.47
2023-03-10T23:44:34.859Z,99346.56
2023-03-10T23:47:01.857Z,99343.25
2023-03-10T23:49:28.736Z,99344.59
2023-03-10T23:51:56.484Z,99344.28
2023-03-10T23:54:24.415Z,99339.56
2023-03-10T23:56:51.448Z,99331.06
2023-03-10T23:59:18.510Z,99331.44
